createdAt,value
2018-11-21T00:00:04.947Z,5
2018-11-21T00:00:55.224Z,5
2018-11-21T00:01:45.849Z,4.9
2018-11-21T00:02:35.404Z,5
2018-11-21T00:03:25.523Z,4.9
2018-11-21T00:04:15.581Z,4.9
2018-11-21T00:05:05.567Z,4.9
2018-11-21T00:05:55.899Z,4.9
2018-11-21T00:06:46.233Z,4.9
2018-11-21T00:25:03.161Z,4.9
2018-11-21T00:25:53.480Z,4.9
2018-11-21T00:26:43.531Z,4.9
2018-11-21T00:27:33.320Z,4.9
2018-11-21T00:28:22.522Z,4.9
2018-11-21T00:29:12.968Z,4.9
2018-11-21T00:30:03.986Z,4.9
2018-11-21T00:30:53.550Z,4.9
2018-11-21T00:31:43.595Z,4.8
2018-11-21T00:32:33.077Z,4.8
2018-11-21T00:33:23.592Z,4.8
2018-11-21T00:34:14.082Z,4.8
2018-11-21T00:35:04.993Z,4.8
2018-11-21T00:35:53.898Z,4.8
2018-11-21T00:36:44.794Z,4.8
2018-11-21T00:37:33.711Z,4.8
2018-11-21T00:38:24.089Z,4.8
2018-11-21T00:39:13.834Z,4.8
2018-11-21T00:40:04.189Z,4.8
2018-11-21T00:40:54.035Z,4.8
2018-11-21T00:41:43.971Z,4.8
2018-11-21T00:42:34.589Z,4.8
2018-11-21T00:43:24.725Z,4.8
2018-11-21T00:44:14.263Z,4.8
2018-11-21T00:45:04.417Z,4.8
2018-11-21T00:45:54.614Z,4.8
2018-11-21T00:46:44.313Z,4.8
2018-11-21T00:47:35.218Z,4.8
2018-11-21T00:48:25.056Z,4.7
2018-11-21T00:49:14.347Z,4.8
2018-11-21T00:50:04.866Z,4.8
2018-11-21T00:50:55.236Z,4.7
2018-11-21T00:51:44.978Z,4.7
2018-11-21T00:52:34.768Z,4.8
2018-11-21T00:53:25.112Z,4.8
2018-11-21T00:54:14.698Z,4.7
2018-11-21T00:55:04.721Z,4.8
2018-11-21T00:55:55.013Z,4.7
2018-11-21T00:56:45.455Z,4.8
2018-11-21T00:57:34.835Z,4.8
2018-11-21T00:58:25.475Z,4.8
2018-11-21T00:59:15.495Z,4.7
2018-11-21T01:00:05.398Z,4.7
2018-11-21T01:00:55.920Z,4.7
2018-11-21T01:01:45.398Z,4.8
2018-11-21T01:02:36.068Z,4.8
2018-11-21T01:03:25.338Z,4.8
2018-11-21T01:04:16.155Z,4.8
2018-11-21T01:05:06.475Z,4.8
2018-11-21T01:05:55.700Z,4.8
2018-11-21T01:06:45.715Z,4.9
2018-11-21T01:07:36.930Z,4.9
2018-11-21T01:08:26.740Z,4.9
2018-11-21T01:09:15.936Z,5
2018-11-21T01:10:06.417Z,4.9
2018-11-21T01:10:56.647Z,4.9
2018-11-21T01:11:46.989Z,5
2018-11-21T01:12:36.552Z,4.9
2018-11-21T01:13:27.099Z,4.9
2018-11-21T01:14:16.841Z,5.1
2018-11-21T01:15:07.214Z,5.1
2018-11-21T01:15:57.211Z,5
2018-11-21T01:16:47.096Z,5
2018-11-21T01:17:37.619Z,5
2018-11-21T01:18:27.444Z,5.1
2018-11-21T01:19:17.244Z,5
2018-11-21T01:20:07.619Z,5
2018-11-21T01:20:57.582Z,5
2018-11-21T01:21:47.181Z,5
2018-11-21T01:22:36.949Z,5
2018-11-21T01:23:28.116Z,5
2018-11-21T01:24:16.869Z,5
2018-11-21T01:25:07.138Z,5
2018-11-21T01:25:57.181Z,5
2018-11-21T01:26:47.429Z,5
2018-11-21T01:27:37.566Z,5.1
2018-11-21T01:28:27.561Z,5.1
2018-11-21T01:29:18.173Z,5.1
2018-11-21T01:30:07.457Z,5.1
2018-11-21T01:30:58.030Z,5.1
2018-11-21T01:31:48.023Z,5.1
2018-11-21T01:32:38.121Z,5.1
2018-11-21T01:33:28.206Z,5.1
2018-11-21T01:34:17.965Z,5.1
2018-11-21T01:35:07.746Z,5.1
2018-11-21T01:35:58.665Z,5.1
2018-11-21T01:36:48.718Z,5.1
2018-11-21T01:37:38.180Z,5.1
2018-11-21T01:38:28.261Z,5.1
2018-11-21T01:39:18.013Z,5.1
2018-11-21T01:40:08.093Z,5.1
2018-11-21T01:40:58.710Z,5.1
2018-11-21T01:41:48.595Z,5.1
2018-11-21T01:42:39.097Z,5.2
2018-11-21T01:43:28.030Z,5.2
2018-11-21T01:44:18.957Z,5.1
2018-11-21T01:45:08.430Z,5.2
2018-11-21T01:45:58.495Z,5.1
2018-11-21T01:46:49.177Z,5.2
2018-11-21T01:47:39.538Z,5.2
2018-11-21T01:48:28.940Z,5.2
2018-11-21T01:49:19.012Z,5.2
2018-11-21T01:50:09.362Z,5.2
2018-11-21T01:50:59.111Z,5.2
2018-11-21T01:51:49.174Z,5.2
2018-11-21T01:52:40.057Z,5.2
2018-11-21T01:53:30.100Z,5.2
2018-11-21T01:54:18.489Z,5.1
2018-11-21T01:55:09.979Z,5.2
2018-11-21T01:55:59.445Z,5.2
2018-11-21T01:56:50.087Z,5.2
2018-11-21T01:57:39.284Z,5.2
2018-11-21T01:58:29.633Z,5.2
2018-11-21T01:59:19.719Z,5.2
2018-11-21T02:00:10.072Z,5.2
2018-11-21T02:01:00.186Z,5.2
2018-11-21T02:01:49.994Z,5.2
2018-11-21T02:02:40.546Z,5.2
2018-11-21T02:03:30.516Z,5.2
2018-11-21T02:04:19.766Z,5.2
2018-11-21T02:05:10.128Z,5.2
2018-11-21T02:06:00.456Z,5.3
2018-11-21T02:06:49.939Z,5.2
2018-11-21T02:07:40.096Z,5.2
2018-11-21T02:08:30.751Z,5.2
2018-11-21T02:09:20.591Z,5.2
2018-11-21T02:10:10.169Z,5.2
2018-11-21T02:11:00.795Z,5.2
2018-11-21T02:11:50.580Z,5.2
2018-11-21T02:12:40.541Z,5.1
2018-11-21T02:13:30.733Z,5.1
2018-11-21T02:14:20.758Z,5.2
2018-11-21T02:15:10.809Z,5.2
2018-11-21T02:16:01.483Z,5.1
2018-11-21T02:16:51.200Z,5.1
2018-11-21T02:17:41.246Z,5.2
2018-11-21T02:18:31.090Z,5.2
2018-11-21T02:19:21.080Z,5.2
2018-11-21T02:20:10.673Z,5.2
2018-11-21T02:21:01.213Z,5.2
2018-11-21T02:21:51.366Z,5.3
2018-11-21T02:22:41.931Z,5.3
2018-11-21T02:23:31.627Z,5.3
2018-11-21T02:24:21.442Z,5.3
2018-11-21T02:25:11.505Z,5.3
2018-11-21T02:26:01.565Z,5.3
2018-11-21T02:26:51.886Z,5.3
2018-11-21T02:27:41.982Z,5.3
2018-11-21T02:28:31.303Z,5.3
2018-11-21T02:29:21.333Z,5.3
2018-11-21T02:30:11.281Z,5.3
2018-11-21T02:31:02.198Z,5.3
2018-11-21T02:31:52.243Z,5.3
2018-11-21T02:32:42.328Z,5.3
2018-11-21T02:33:32.963Z,5.3
2018-11-21T02:34:22.517Z,5.3
2018-11-21T02:35:12.501Z,5.3
2018-11-21T02:36:02.540Z,5.4
2018-11-21T02:36:52.652Z,5.3
2018-11-21T02:37:42.364Z,5.3
2018-11-21T02:38:33.029Z,5.3
2018-11-21T02:39:22.813Z,5.3
2018-11-21T02:40:12.649Z,5.3
2018-11-21T02:41:03.004Z,5.3
2018-11-21T02:41:52.921Z,5.3
2018-11-21T02:42:42.812Z,5.3
2018-11-21T02:43:33.138Z,5.3
2018-11-21T02:44:23.364Z,5.3
2018-11-21T02:45:12.929Z,5.3
2018-11-21T02:46:02.386Z,5.3
2018-11-21T02:46:53.325Z,5.2
2018-11-21T02:47:43.401Z,5.3
2018-11-21T02:48:33.419Z,5.3
2018-11-21T02:49:23.812Z,5.2
2018-11-21T02:50:13.252Z,5.3
2018-11-21T02:51:03.686Z,5.2
2018-11-21T02:51:53.404Z,5.2
2018-11-21T02:52:43.763Z,5.2
2018-11-21T02:53:33.518Z,5.2
2018-11-21T02:54:23.936Z,5.2
2018-11-21T02:55:13.613Z,5.2
2018-11-21T02:56:03.368Z,5.2
2018-11-21T02:56:54.285Z,5.3
2018-11-21T02:57:44.068Z,5.3
2018-11-21T02:58:33.547Z,5.3
2018-11-21T02:59:23.987Z,5.3
2018-11-21T03:00:13.643Z,5.3
2018-11-21T03:01:04.028Z,5.3
2018-11-21T03:01:53.480Z,5.3
2018-11-21T03:02:44.445Z,5.3
2018-11-21T03:03:34.463Z,5.3
2018-11-21T03:04:24.535Z,5.3
2018-11-21T03:05:14.038Z,5.3
2018-11-21T03:06:04.941Z,5.4
2018-11-21T03:06:54.415Z,5.4
2018-11-21T03:07:44.778Z,5.4
2018-11-21T03:08:35.129Z,5.4
2018-11-21T03:09:24.912Z,5.4
2018-11-21T03:10:14.955Z,5.3
2018-11-21T03:11:04.520Z,5.3
2018-11-21T03:11:55.362Z,5.3
2018-11-21T03:12:45.107Z,5.3
2018-11-21T03:13:35.190Z,5.3
2018-11-21T03:14:24.992Z,5.3
2018-11-21T03:15:14.974Z,5.3
2018-11-21T03:16:04.772Z,5.3
2018-11-21T03:16:55.684Z,5.3
2018-11-21T03:17:45.191Z,5.3
2018-11-21T03:18:35.253Z,5.3
2018-11-21T03:19:25.634Z,5.2
2018-11-21T03:20:15.102Z,5.2
2018-11-21T03:21:05.134Z,5.2
2018-11-21T03:21:55.555Z,5.1
2018-11-21T03:22:45.804Z,5.1
2018-11-21T03:23:35.599Z,5.1
2018-11-21T03:24:26.206Z,5.1
2018-11-21T03:25:14.866Z,5.1
2018-11-21T03:26:06.042Z,5
2018-11-21T03:26:55.328Z,5
2018-11-21T03:27:46.162Z,5
2018-11-21T03:28:36.216Z,4.9
2018-11-21T03:29:26.001Z,4.9
2018-11-21T03:30:16.066Z,5
2018-11-21T03:31:05.656Z,5
2018-11-21T03:31:56.180Z,5.1
2018-11-21T03:32:46.334Z,5.1
2018-11-21T03:33:35.983Z,5.1
2018-11-21T03:34:25.753Z,5.1
2018-11-21T03:35:16.666Z,5.1
2018-11-21T03:36:06.233Z,5.2
2018-11-21T03:36:56.283Z,5.1
2018-11-21T03:37:46.876Z,5.1
2018-11-21T03:38:36.976Z,5.1
2018-11-21T03:39:26.685Z,5.1
2018-11-21T03:40:16.183Z,5.2
2018-11-21T03:41:07.661Z,5.1
2018-11-21T03:41:57.140Z,5.1
2018-11-21T03:42:46.920Z,5.1
2018-11-21T03:43:36.960Z,5.2
2018-11-21T03:44:26.656Z,5.2
2018-11-21T03:45:17.124Z,5.2
2018-11-21T03:46:06.885Z,5.2
2018-11-21T03:46:56.943Z,5.3
2018-11-21T03:47:47.837Z,5.3
2018-11-21T03:48:37.610Z,5.3
2018-11-21T03:49:27.705Z,5.3
2018-11-21T03:50:17.745Z,5.3
2018-11-21T03:51:06.853Z,5.4
2018-11-21T03:51:57.567Z,5.4
2018-11-21T03:52:47.616Z,5.4
2018-11-21T03:53:37.772Z,5.4
2018-11-21T03:54:27.454Z,5.4
2018-11-21T03:55:17.814Z,5.4
2018-11-21T03:56:07.560Z,5.4
2018-11-21T03:56:57.910Z,5.4
2018-11-21T03:57:47.986Z,5.4
2018-11-21T03:58:38.594Z,5.4
2018-11-21T03:59:28.214Z,5.4
2018-11-21T04:00:18.284Z,5.4
2018-11-21T04:01:08.507Z,5.4
2018-11-21T04:01:57.876Z,5.4
2018-11-21T04:02:48.308Z,5.4
2018-11-21T04:03:38.398Z,5.4
2018-11-21T04:04:28.456Z,5.4
2018-11-21T04:05:18.199Z,5.4
2018-11-21T04:06:08.526Z,5.4
2018-11-21T04:06:58.047Z,5.4
2018-11-21T04:07:48.672Z,5.4
2018-11-21T04:08:44.999Z,5.4
2018-11-21T04:09:29.421Z,5.4
2018-11-21T04:10:18.851Z,5.4
2018-11-21T04:11:09.528Z,5.4
2018-11-21T04:11:59.264Z,5.4
2018-11-21T04:12:49.069Z,5.4
2018-11-21T04:13:39.120Z,5.4
2018-11-21T04:14:29.423Z,5.4
2018-11-21T04:15:19.009Z,5.4
2018-11-21T04:16:09.252Z,5.4
2018-11-21T04:16:58.815Z,5.4
2018-11-21T04:17:49.657Z,5.4
2018-11-21T04:18:39.696Z,5.4
2018-11-21T04:19:29.226Z,5.4
2018-11-21T04:20:19.577Z,5.4
2018-11-21T04:21:09.872Z,5.4
2018-11-21T04:21:59.800Z,5.4
2018-11-21T04:22:49.721Z,5.4
2018-11-21T04:23:40.161Z,5.4
2018-11-21T04:24:29.820Z,5.4
2018-11-21T04:25:20.782Z,5.4
2018-11-21T04:26:09.922Z,5.4
2018-11-21T04:26:59.802Z,5.4
2018-11-21T04:27:50.067Z,5.5
2018-11-21T04:28:40.434Z,5.5
2018-11-21T04:29:30.182Z,5.5
2018-11-21T04:30:20.539Z,5.5
2018-11-21T04:31:10.101Z,5.6
2018-11-21T04:32:00.348Z,5.6
2018-11-21T04:32:50.425Z,5.6
2018-11-21T04:33:41.039Z,5.6
2018-11-21T04:34:30.412Z,5.6
2018-11-21T04:35:20.872Z,5.6
2018-11-21T04:36:10.949Z,5.7
2018-11-21T04:37:01.032Z,5.7
2018-11-21T04:54:16.961Z,5.7
2018-11-21T04:55:06.891Z,5.8
2018-11-21T04:55:57.141Z,5.8
2018-11-21T04:56:47.013Z,5.7
2018-11-21T04:57:37.237Z,5.8
2018-11-21T04:58:27.565Z,5.8
2018-11-21T04:59:17.084Z,5.8
2018-11-21T05:00:07.118Z,5.8
2018-11-21T05:00:56.984Z,5.8
2018-11-21T05:01:47.848Z,5.7
2018-11-21T05:02:37.118Z,5.7
2018-11-21T05:03:27.423Z,5.7
2018-11-21T05:04:17.625Z,5.7
2018-11-21T05:05:06.994Z,5.7
2018-11-21T05:05:56.965Z,5.7
2018-11-21T05:06:47.010Z,5.7
2018-11-21T05:07:38.220Z,5.7
2018-11-21T05:08:27.752Z,5.7
2018-11-21T05:09:17.867Z,5.7
2018-11-21T05:10:08.205Z,5.7
2018-11-21T05:10:57.877Z,5.7
2018-11-21T05:11:47.541Z,5.8
2018-11-21T05:12:37.496Z,5.7
2018-11-21T05:13:28.652Z,5.7
2018-11-21T05:14:18.879Z,5.8
2018-11-21T05:15:08.447Z,5.8
2018-11-21T05:15:58.216Z,5.8
2018-11-21T05:16:48.590Z,5.7
2018-11-21T05:17:38.152Z,5.7
2018-11-21T05:18:28.405Z,5.7
2018-11-21T05:19:18.452Z,5.7
2018-11-21T05:20:08.184Z,5.7
2018-11-21T05:20:58.691Z,5.7
2018-11-21T05:21:48.715Z,5.7
2018-11-21T05:22:38.779Z,5.7
2018-11-21T05:23:28.752Z,5.7
2018-11-21T05:24:18.814Z,5.6
2018-11-21T05:25:08.789Z,5.7
2018-11-21T05:25:59.216Z,5.7
2018-11-21T05:26:48.992Z,5.6
2018-11-21T05:27:39.313Z,5.6
2018-11-21T05:28:29.376Z,5.7
2018-11-21T05:29:19.073Z,5.6
2018-11-21T05:30:08.889Z,5.7
2018-11-21T05:30:59.271Z,5.7
2018-11-21T05:31:49.693Z,5.6
2018-11-21T05:32:38.813Z,5.6
2018-11-21T05:33:29.783Z,5.6
2018-11-21T05:34:18.935Z,5.6
2018-11-21T05:35:09.826Z,5.6
2018-11-21T05:35:59.903Z,5.6
2018-11-21T05:36:49.943Z,5.6
2018-11-21T05:37:39.448Z,5.6
2018-11-21T05:38:30.090Z,5.6
2018-11-21T05:39:19.559Z,5.6
2018-11-21T05:40:09.638Z,5.6
2018-11-21T05:40:59.988Z,5.6
2018-11-21T05:41:50.300Z,5.6
2018-11-21T05:42:40.335Z,5.6
2018-11-21T05:43:30.150Z,5.6
2018-11-21T05:44:20.475Z,5.6
2018-11-21T05:45:10.497Z,5.6
2018-11-21T05:46:00.319Z,5.6
2018-11-21T05:46:53.548Z,5.6
2018-11-21T05:47:40.440Z,5.6
2018-11-21T05:48:30.290Z,5.6
2018-11-21T05:49:20.575Z,5.6
2018-11-21T05:50:11.425Z,5.6
2018-11-21T05:51:01.150Z,5.7
2018-11-21T05:51:51.015Z,5.6
2018-11-21T05:52:41.050Z,5.6
2018-11-21T05:53:30.820Z,5.6
2018-11-21T05:54:20.881Z,5.7
2018-11-21T05:55:10.956Z,5.7
2018-11-21T05:56:01.523Z,5.6
2018-11-21T05:56:50.212Z,5.6
2018-11-21T05:57:40.841Z,5.6
2018-11-21T05:58:31.479Z,5.6
2018-11-21T05:59:21.283Z,5.6
2018-11-21T06:00:11.900Z,5.6
2018-11-21T06:01:01.109Z,5.6
2018-11-21T06:01:51.672Z,5.6
2018-11-21T06:02:41.470Z,5.6
2018-11-21T06:03:31.837Z,5.6
2018-11-21T06:04:21.379Z,5.6
2018-11-21T06:05:11.541Z,5.6
2018-11-21T06:06:01.417Z,5.6
2018-11-21T06:06:52.039Z,5.6
2018-11-21T06:07:41.523Z,5.6
2018-11-21T06:08:31.968Z,5.6
2018-11-21T06:09:22.431Z,5.6
2018-11-21T06:10:11.490Z,5.6
2018-11-21T06:11:02.659Z,5.6
2018-11-21T06:11:52.641Z,5.6
2018-11-21T06:12:41.878Z,5.6
2018-11-21T06:13:32.241Z,5.6
2018-11-21T06:14:21.513Z,5.6
2018-11-21T06:15:11.847Z,5.6
2018-11-21T06:16:03.291Z,5.6
2018-11-21T06:16:52.823Z,5.6
2018-11-21T06:17:49.890Z,5.6
2018-11-21T06:18:32.253Z,5.6
2018-11-21T06:19:22.911Z,5.6
2018-11-21T06:20:12.798Z,5.6
2018-11-21T06:21:03.366Z,5.6
2018-11-21T06:21:51.993Z,5.6
2018-11-21T06:22:42.383Z,5.6
2018-11-21T06:23:32.615Z,5.6
2018-11-21T06:24:22.680Z,5.6
2018-11-21T06:25:12.818Z,5.6
2018-11-21T06:26:03.925Z,5.6
2018-11-21T06:26:53.170Z,5.6
2018-11-21T06:27:43.217Z,5.6
2018-11-21T06:28:33.260Z,5.6
2018-11-21T06:29:22.739Z,5.6
2018-11-21T06:30:13.162Z,5.7
2018-11-21T06:31:03.695Z,5.6
2018-11-21T06:31:53.487Z,5.7
2018-11-21T06:32:43.865Z,5.7
2018-11-21T06:33:33.610Z,5.7
2018-11-21T06:34:23.656Z,5.7
2018-11-21T06:35:14.270Z,5.7
2018-11-21T06:36:04.574Z,5.8
2018-11-21T06:36:54.397Z,5.7
2018-11-21T06:37:44.488Z,5.8
2018-11-21T06:38:34.197Z,5.8
2018-11-21T06:39:24.574Z,5.8
2018-11-21T06:40:14.049Z,5.8
2018-11-21T06:41:04.669Z,5.8
2018-11-21T06:41:54.736Z,5.8
2018-11-21T06:42:44.804Z,5.8
2018-11-21T06:43:34.577Z,5.8
2018-11-21T06:44:24.896Z,5.8
2018-11-21T06:45:14.398Z,5.8
2018-11-21T06:46:05.026Z,5.8
2018-11-21T06:46:55.056Z,5.8
2018-11-21T06:47:44.834Z,5.8
2018-11-21T06:48:35.180Z,5.8
2018-11-21T06:49:24.965Z,5.8
2018-11-21T06:50:15.286Z,5.8
2018-11-21T06:51:05.369Z,5.8
2018-11-21T06:51:55.411Z,5.8
2018-11-21T06:52:45.521Z,5.8
2018-11-21T06:53:35.281Z,5.8
2018-11-21T06:54:25.611Z,5.8
2018-11-21T06:55:15.658Z,5.8
2018-11-21T06:56:05.763Z,5.8
2018-11-21T06:56:55.773Z,5.9
2018-11-21T06:57:44.978Z,5.9
2018-11-21T06:58:35.310Z,5.9
2018-11-21T06:59:25.939Z,5.9
2018-11-21T07:00:15.748Z,5.9
2018-11-21T07:01:06.078Z,5.9
2018-11-21T07:01:56.136Z,5.9
2018-11-21T07:02:46.171Z,5.9
2018-11-21T07:03:36.231Z,5.9
2018-11-21T07:04:26.008Z,5.9
2018-11-21T07:05:16.374Z,5.9
2018-11-21T07:06:06.399Z,5.9
2018-11-21T07:06:56.460Z,5.9
2018-11-21T07:07:46.535Z,6
2018-11-21T07:08:36.290Z,5.9
2018-11-21T07:09:26.355Z,5.9
2018-11-21T07:10:16.727Z,5.9
2018-11-21T07:11:06.475Z,5.9
2018-11-21T07:11:56.820Z,5.9
2018-11-21T07:12:46.822Z,5.9
2018-11-21T07:13:36.639Z,5.9
2018-11-21T07:14:26.695Z,5.9
2018-11-21T07:15:17.044Z,5.9
2018-11-21T07:16:07.108Z,5.9
2018-11-21T07:16:56.887Z,5.9
2018-11-21T07:17:47.470Z,5.9
2018-11-21T07:18:37.291Z,5.9
2018-11-21T07:19:27.324Z,5.9
2018-11-21T07:20:17.124Z,5.9
2018-11-21T07:21:07.454Z,5.9
2018-11-21T07:21:57.226Z,5.9
2018-11-21T07:22:47.284Z,5.9
2018-11-21T07:23:37.672Z,5.9
2018-11-21T07:24:29.089Z,5.9
2018-11-21T07:25:17.986Z,5.9
2018-11-21T07:26:07.794Z,5.9
2018-11-21T07:26:57.279Z,5.9
2018-11-21T07:27:47.059Z,5.9
2018-11-21T07:28:37.663Z,5.9
2018-11-21T07:29:35.604Z,5.9
2018-11-21T07:30:18.066Z,5.9
2018-11-21T07:31:07.879Z,5.9
2018-11-21T07:31:58.191Z,5.9
2018-11-21T07:32:48.024Z,5.9
2018-11-21T07:33:38.363Z,5.9
2018-11-21T07:34:28.401Z,6
2018-11-21T07:35:21.131Z,6
2018-11-21T07:36:08.216Z,5.9
2018-11-21T07:36:57.986Z,6
2018-11-21T07:37:48.321Z,6
2018-11-21T07:38:38.374Z,6
2018-11-21T07:39:29.006Z,6
2018-11-21T07:40:18.220Z,6
2018-11-21T07:41:08.843Z,6
2018-11-21T07:41:58.608Z,6
2018-11-21T07:42:48.680Z,6
2018-11-21T07:43:38.771Z,6
2018-11-21T07:44:28.811Z,6
2018-11-21T07:45:18.847Z,6
2018-11-21T07:46:09.190Z,6
2018-11-21T07:46:58.981Z,6
2018-11-21T07:47:49.025Z,6
2018-11-21T07:48:39.350Z,6
2018-11-21T07:49:29.428Z,6
2018-11-21T07:50:19.495Z,6
2018-11-21T07:51:09.245Z,6
2018-11-21T07:51:59.625Z,6
2018-11-21T07:52:49.695Z,6
2018-11-21T07:53:39.720Z,6.1
2018-11-21T07:54:29.764Z,6
2018-11-21T07:55:19.826Z,6
2018-11-21T07:56:09.590Z,6.1
2018-11-21T07:56:59.932Z,6.1
2018-11-21T07:57:50.250Z,6.1
2018-11-21T07:58:39.473Z,6.1
2018-11-21T07:59:29.838Z,6.1
2018-11-21T08:00:20.188Z,6.1
2018-11-21T08:01:10.230Z,6.1
2018-11-21T08:02:00.049Z,6.1
2018-11-21T08:02:50.055Z,6.1
2018-11-21T08:03:39.823Z,6.1
2018-11-21T08:04:30.447Z,6.1
2018-11-21T08:05:20.233Z,6.1
2018-11-21T08:06:09.725Z,6.1
2018-11-21T08:07:00.638Z,6.1
2018-11-21T08:07:50.448Z,6.1
2018-11-21T08:08:40.485Z,6.1
2018-11-21T08:09:30.525Z,6.1
2018-11-21T08:10:20.870Z,6.2
2018-11-21T08:11:10.905Z,6.1
2018-11-21T08:12:00.425Z,6.2
2018-11-21T08:12:51.047Z,6.1
2018-11-21T08:13:41.090Z,6.1
2018-11-21T08:14:31.165Z,6.1
2018-11-21T08:15:22.474Z,6.1
2018-11-21T08:16:10.979Z,6.1
2018-11-21T08:17:00.766Z,6.1
2018-11-21T08:17:51.369Z,6.1
2018-11-21T08:18:41.395Z,6.1
2018-11-21T08:19:31.527Z,6.1
2018-11-21T08:20:21.033Z,5.9
2018-11-21T08:21:11.331Z,5.8
2018-11-21T08:22:01.666Z,5.6
2018-11-21T08:22:51.437Z,5.5
2018-11-21T08:23:41.506Z,5.4
2018-11-21T08:24:31.557Z,5.4
2018-11-21T08:25:22.146Z,5.4
2018-11-21T08:26:11.961Z,5.4
2018-11-21T08:27:02.041Z,5.3
2018-11-21T08:27:51.559Z,5.3
2018-11-21T08:28:42.384Z,5.3
2018-11-21T08:29:31.961Z,5.2
2018-11-21T08:30:22.027Z,5.2
2018-11-21T08:31:12.303Z,5.2
2018-11-21T08:32:02.372Z,5.2
2018-11-21T08:32:51.864Z,5.2
2018-11-21T08:33:42.546Z,5.2
2018-11-21T08:34:32.226Z,5.1
2018-11-21T08:35:22.596Z,5.1
2018-11-21T08:36:12.122Z,5.1
2018-11-21T08:37:02.166Z,5.1
2018-11-21T08:37:52.760Z,5.1
2018-11-21T08:38:42.848Z,5
2018-11-21T08:39:32.868Z,5
2018-11-21T08:40:22.653Z,5
2018-11-21T08:41:12.968Z,5
2018-11-21T08:42:03.090Z,4.9
2018-11-21T09:08:43.006Z,3.9
2018-11-21T09:09:32.251Z,4.1
2018-11-21T09:10:22.293Z,4
2018-11-21T09:11:12.369Z,4
2018-11-21T09:12:02.484Z,4
2018-11-21T09:12:52.468Z,4
2018-11-21T09:13:42.506Z,4.1
2018-11-21T09:14:32.572Z,4
2018-11-21T09:15:21.786Z,4
2018-11-21T09:16:12.721Z,4.1
2018-11-21T09:17:02.743Z,4.1
2018-11-21T09:17:52.785Z,4.1
2018-11-21T09:18:43.378Z,4.1
2018-11-21T09:19:32.643Z,4
2018-11-21T09:20:22.990Z,4
2018-11-21T09:21:12.496Z,4
2018-11-21T09:22:03.094Z,4
2018-11-21T09:22:53.203Z,4
2018-11-21T09:23:43.213Z,3.9
2018-11-21T09:24:33.280Z,3.9
2018-11-21T09:25:23.071Z,3.9
2018-11-21T09:26:13.375Z,3.9
2018-11-21T09:27:03.447Z,3.8
2018-11-21T09:27:52.645Z,3.8
2018-11-21T09:28:43.265Z,3.9
2018-11-21T09:29:33.630Z,3.8
2018-11-21T09:30:23.702Z,3.8
2018-11-21T09:31:13.720Z,3.8
2018-11-21T09:32:02.952Z,3.8
2018-11-21T09:32:52.997Z,3.8
2018-11-21T09:33:43.639Z,3.8
2018-11-21T09:34:33.952Z,3.8
2018-11-21T09:35:24.047Z,3.8
2018-11-21T09:36:13.842Z,3.7
2018-11-21T09:37:04.145Z,3.7
2018-11-21T09:37:54.210Z,3.7
2018-11-21T09:38:43.689Z,3.6
2018-11-21T09:39:34.546Z,3.6
2018-11-21T09:40:23.809Z,3.7
2018-11-21T09:41:14.462Z,3.7
2018-11-21T09:42:04.496Z,3.6
2018-11-21T09:42:54.252Z,3.6
2018-11-21T09:43:44.579Z,3.6
2018-11-21T09:44:34.353Z,3.6
2018-11-21T09:45:24.701Z,3.6
2018-11-21T09:46:19.751Z,3.6
2018-11-21T09:47:04.251Z,3.6
2018-11-21T09:47:54.620Z,3.6
2018-11-21T09:48:44.913Z,3.6
2018-11-21T09:49:35.058Z,3.6
2018-11-21T09:50:25.705Z,3.6
2018-11-21T09:51:15.113Z,3.6
2018-11-21T09:52:05.183Z,3.6
2018-11-21T09:52:55.241Z,3.6
2018-11-21T09:53:44.168Z,3.7
2018-11-21T09:54:35.345Z,3.6
2018-11-21T09:55:25.138Z,3.6
2018-11-21T09:56:15.203Z,3.6
2018-11-21T09:57:05.528Z,3.6
2018-11-21T09:57:55.580Z,3.6
2018-11-21T09:58:45.352Z,3.6
2018-11-21T09:59:35.685Z,3.6
2018-11-21T10:00:25.716Z,3.6
2018-11-21T10:01:15.815Z,3.6
2018-11-21T10:02:05.866Z,3.6
2018-11-21T10:02:55.934Z,3.6
2018-11-21T10:03:45.973Z,3.6
2018-11-21T10:04:36.340Z,3.6
2018-11-21T10:05:26.598Z,3.6
2018-11-21T10:06:15.861Z,3.6
2018-11-21T10:07:05.935Z,3.6
2018-11-21T10:07:56.272Z,3.6
2018-11-21T10:08:46.377Z,3.6
2018-11-21T10:09:36.102Z,3.6
2018-11-21T10:10:26.451Z,3.6
2018-11-21T10:11:16.512Z,3.6
2018-11-21T10:12:06.548Z,3.6
2018-11-21T10:12:55.775Z,3.6
2018-11-21T10:13:46.719Z,3.6
2018-11-21T10:14:36.529Z,3.6
2018-11-21T10:15:26.570Z,3.6
2018-11-21T10:16:16.854Z,3.6
2018-11-21T10:17:06.641Z,3.6
2018-11-21T10:17:56.956Z,3.6
2018-11-21T10:18:47.011Z,3.6
2018-11-21T10:19:37.373Z,3.6
2018-11-21T10:20:27.424Z,3.6
2018-11-21T10:21:17.233Z,3.6
2018-11-21T10:22:07.239Z,3.6
2018-11-21T10:22:57.298Z,3.6
2018-11-21T10:23:47.886Z,3.6
2018-11-21T10:24:37.434Z,3.5
2018-11-21T10:25:27.474Z,3.4
2018-11-21T10:26:17.530Z,3.5
2018-11-21T10:27:07.326Z,3.5
2018-11-21T10:27:57.661Z,3.6
2018-11-21T10:28:47.698Z,3.6
2018-11-21T10:29:38.084Z,3.6
2018-11-21T10:30:27.821Z,3.5
2018-11-21T10:31:17.891Z,3.5
2018-11-21T10:32:07.383Z,3.4
2018-11-21T10:32:57.981Z,3.6
2018-11-21T10:33:47.803Z,3.5
2018-11-21T10:34:37.793Z,3.6
2018-11-21T10:35:28.116Z,3.6
2018-11-21T10:36:18.220Z,3.6
2018-11-21T10:37:07.722Z,3.5
2018-11-21T10:37:58.353Z,3.6
2018-11-21T10:38:48.408Z,3.6
2018-11-21T10:39:38.181Z,3.6
2018-11-21T10:40:28.270Z,3.6
2018-11-21T10:41:18.572Z,3.6
2018-11-21T10:42:08.695Z,3.6
2018-11-21T10:42:58.680Z,3.6
2018-11-21T10:43:48.192Z,3.6
2018-11-21T10:44:38.537Z,3.6
2018-11-21T10:45:28.862Z,3.6
2018-11-21T10:46:18.372Z,3.6
2018-11-21T10:47:08.422Z,3.6
2018-11-21T10:47:58.475Z,3.6
2018-11-21T10:48:48.546Z,3.6
2018-11-21T10:49:39.164Z,3.6
2018-11-21T10:50:29.005Z,3.6
2018-11-21T10:51:19.065Z,3.6
2018-11-21T10:52:09.375Z,3.7
2018-11-21T10:52:59.120Z,3.8
2018-11-21T10:53:49.172Z,3.8
2018-11-21T10:54:39.219Z,3.8
2018-11-21T10:55:29.267Z,3.7
2018-11-21T10:56:19.321Z,3.7
2018-11-21T10:57:09.422Z,3.8
2018-11-21T10:57:59.444Z,3.8
2018-11-21T10:58:49.214Z,3.7
2018-11-21T10:59:39.567Z,3.6
2018-11-21T11:00:29.917Z,3.6
2018-11-21T11:01:19.420Z,3.6
2018-11-21T11:02:10.014Z,3.6
2018-11-21T11:03:00.098Z,3.4
2018-11-21T11:03:51.085Z,3.5
2018-11-21T11:04:40.202Z,3.5
2018-11-21T11:05:29.683Z,3.6
2018-11-21T11:06:20.031Z,3.6
2018-11-21T11:07:10.107Z,3.6
2018-11-21T11:08:00.160Z,3.6
2018-11-21T11:08:50.518Z,3.6
2018-11-21T11:09:40.565Z,3.6
2018-11-21T11:10:30.315Z,3.5
2018-11-21T11:11:20.367Z,3.6
2018-11-21T11:12:10.718Z,3.6
2018-11-21T11:13:00.793Z,3.6
2018-11-21T11:13:50.835Z,3.5
2018-11-21T11:14:40.603Z,3.6
2018-11-21T11:15:30.935Z,3.6
2018-11-21T11:16:20.930Z,3.7
2018-11-21T11:17:10.801Z,3.7
2018-11-21T11:18:02.568Z,3.6
2018-11-21T11:18:51.185Z,3.6
2018-11-21T11:19:41.227Z,3.6
2018-11-21T11:20:31.012Z,3.6
2018-11-21T11:21:21.617Z,3.5
2018-11-21T11:22:11.130Z,3.6
2018-11-21T11:23:01.187Z,3.5
2018-11-21T11:23:51.230Z,3.6
2018-11-21T11:24:41.297Z,3.6
2018-11-21T11:25:31.651Z,3.6
2018-11-21T11:26:22.017Z,3.6
2018-11-21T11:27:11.464Z,3.6
2018-11-21T11:28:02.115Z,3.5
2018-11-21T11:28:51.610Z,3.5
2018-11-21T11:29:41.116Z,3.6
2018-11-21T11:30:31.719Z,3.6
2018-11-21T11:31:21.794Z,3.6
2018-11-21T11:32:11.812Z,3.7
2018-11-21T11:33:01.496Z,3.6
2018-11-21T11:33:51.394Z,3.6
2018-11-21T11:34:41.151Z,3.6
2018-11-21T11:35:31.511Z,3.5
2018-11-21T11:36:22.077Z,3.6
2018-11-21T11:37:11.619Z,3.6
2018-11-21T11:38:01.804Z,3.5
2018-11-21T11:38:51.725Z,3.4
2018-11-21T11:39:42.349Z,3.4
2018-11-21T11:40:32.274Z,3.4
2018-11-21T11:41:22.183Z,3.5
2018-11-21T11:42:12.264Z,3.4
2018-11-21T11:43:02.848Z,3.4
2018-11-21T11:43:52.667Z,3.4
2018-11-21T11:44:42.421Z,3.4
2018-11-21T11:45:32.601Z,3.5
2018-11-21T11:46:23.095Z,3.6
2018-11-21T11:47:13.158Z,3.6
2018-11-21T11:48:02.940Z,3.6
2018-11-21T11:48:52.638Z,3.6
2018-11-21T11:49:42.562Z,3.6
2018-11-21T11:50:33.120Z,3.5
2018-11-21T11:51:22.318Z,3.5
2018-11-21T11:52:12.363Z,3.5
2018-11-21T11:53:03.317Z,3.6
2018-11-21T11:53:53.058Z,3.6
2018-11-21T11:54:42.640Z,3.6
2018-11-21T11:55:33.183Z,3.5
2018-11-21T11:56:23.518Z,3.5
2018-11-21T11:57:13.370Z,3.5
2018-11-21T11:58:03.958Z,3.4
2018-11-21T11:58:53.763Z,3.4
2018-11-21T11:59:43.472Z,3.4
2018-11-21T12:00:33.235Z,3.4
2018-11-21T12:01:23.322Z,3.4
2018-11-21T12:02:14.964Z,3.4
2018-11-21T12:03:03.130Z,3.4
2018-11-21T12:04:00.516Z,3.5
2018-11-21T12:04:43.605Z,3.5
2018-11-21T12:05:33.555Z,3.4
2018-11-21T12:06:23.727Z,3.5
2018-11-21T12:07:13.218Z,3.4
2018-11-21T12:08:04.352Z,3.5
2018-11-21T12:08:54.372Z,3.4
2018-11-21T12:09:44.159Z,3.4
2018-11-21T12:10:34.027Z,3.4
2018-11-21T12:11:24.829Z,3.5
2018-11-21T12:12:14.649Z,3.4
2018-11-21T12:13:04.112Z,3.4
2018-11-21T12:13:54.404Z,3.4
2018-11-21T12:14:45.068Z,3.4
2018-11-21T12:15:34.663Z,3.4
2018-11-21T12:16:24.584Z,3.4
2018-11-21T12:17:15.044Z,3.4
2018-11-21T12:18:05.045Z,3.4
2018-11-21T12:18:56.561Z,3.4
2018-11-21T12:19:44.504Z,3.4
2018-11-21T12:20:35.445Z,3.4
2018-11-21T12:21:24.715Z,3.4
2018-11-21T12:22:15.288Z,3.4
2018-11-21T12:23:05.172Z,3.5
2018-11-21T12:23:56.648Z,3.5
2018-11-21T12:24:44.926Z,3.5
2018-11-21T12:25:35.228Z,3.5
2018-11-21T12:26:25.103Z,3.5
2018-11-21T12:27:15.663Z,3.5
2018-11-21T12:28:05.398Z,3.5
2018-11-21T12:28:54.907Z,3.5
2018-11-21T12:29:45.780Z,3.5
2018-11-21T12:30:36.429Z,3.5
2018-11-21T12:31:25.665Z,3.5
2018-11-21T12:32:15.697Z,3.4